createdAt,value
2017-03-22T00:01:02.329Z,5.36
2017-03-22T00:02:12.323Z,5.29
2017-03-22T00:03:22.228Z,5.26
2017-03-22T00:04:32.137Z,5.16
2017-03-22T00:05:42.141Z,5.18
2017-03-22T00:06:52.077Z,5.21
2017-03-22T00:08:02.307Z,5.21
2017-03-22T00:09:12.220Z,5.21
2017-03-22T00:10:21.840Z,5.26
2017-03-22T00:11:31.458Z,5.25
2017-03-22T00:12:41.055Z,5.22
2017-03-22T00:13:51.101Z,5.18
2017-03-22T00:15:01.015Z,5.17
2017-03-22T00:16:10.951Z,5.16
2017-03-22T00:17:20.550Z,5.17
2017-03-22T00:18:30.183Z,5.22
2017-03-22T00:19:39.764Z,5.21
2017-03-22T00:20:49.681Z,5.21
2017-03-22T00:21:59.713Z,5.29
2017-03-22T00:23:09.407Z,5.25
2017-03-22T00:24:19.341Z,5.31
2017-03-22T00:25:29.296Z,5.22
2017-03-22T00:26:39.244Z,5.17
2017-03-22T00:27:48.855Z,5.24
2017-03-22T00:28:58.873Z,5.25
2017-03-22T00:30:08.858Z,5.18
2017-03-22T00:31:18.833Z,5.28
2017-03-22T00:32:28.763Z,5.28
2017-03-22T00:33:38.805Z,5.29
2017-03-22T00:34:48.813Z,5.26
2017-03-22T00:35:58.742Z,5.18
2017-03-22T00:37:08.653Z,5.22
2017-03-22T00:38:18.278Z,5.25
2017-03-22T00:39:28.180Z,5.21
2017-03-22T00:40:38.121Z,5.18
2017-03-22T00:41:48.268Z,5.22
2017-03-22T00:42:58.168Z,5.13
2017-03-22T00:44:07.761Z,5.1
2017-03-22T00:45:17.671Z,5.1
2017-03-22T00:46:27.260Z,5.07
2017-03-22T00:47:37.178Z,5.11
2017-03-22T00:48:47.160Z,5.04
2017-03-22T00:49:56.448Z,5.06
2017-03-22T00:51:06.347Z,5
2017-03-22T00:52:15.978Z,4.99
2017-03-22T00:53:25.944Z,5.06
2017-03-22T00:54:35.264Z,4.98
2017-03-22T00:55:45.229Z,5
2017-03-22T00:56:55.125Z,4.96
2017-03-22T00:58:04.823Z,4.93
2017-03-22T00:59:14.403Z,4.92
2017-03-22T01:00:24.302Z,4.92
2017-03-22T01:01:34.203Z,4.92
2017-03-22T01:02:44.134Z,4.8
2017-03-22T01:03:53.725Z,4.81
2017-03-22T01:05:03.742Z,4.81
2017-03-22T01:06:13.532Z,4.81
2017-03-22T01:07:23.436Z,4.86
2017-03-22T01:08:33.482Z,4.8
2017-03-22T01:09:43.415Z,4.85
2017-03-22T01:10:53.321Z,4.73
2017-03-22T01:12:03.452Z,4.71
2017-03-22T01:13:13.363Z,4.78
2017-03-22T01:14:23.277Z,4.65
2017-03-22T01:15:33.202Z,4.65
2017-03-22T01:16:43.126Z,4.7
2017-03-22T01:17:53.031Z,4.57
2017-03-22T01:19:02.933Z,4.67
2017-03-22T01:20:12.632Z,4.6
2017-03-22T01:21:22.540Z,4.67
2017-03-22T01:22:32.219Z,4.56
2017-03-22T01:23:42.166Z,4.63
2017-03-22T01:24:51.760Z,4.52
2017-03-22T01:26:01.794Z,4.53
2017-03-22T01:27:11.735Z,4.52
2017-03-22T01:28:21.371Z,4.5
2017-03-22T01:29:30.325Z,4.46
2017-03-22T01:30:40.296Z,4.52
2017-03-22T01:31:50.202Z,4.46
2017-03-22T01:33:00.148Z,4.43
2017-03-22T01:34:10.095Z,4.49
2017-03-22T01:35:20.087Z,4.36
2017-03-22T01:36:30.041Z,4.46
2017-03-22T01:37:39.963Z,4.46
2017-03-22T01:38:49.863Z,4.4
2017-03-22T01:39:59.771Z,4.4
2017-03-22T01:41:09.424Z,4.46
2017-03-22T01:42:19.089Z,4.33
2017-03-22T01:43:28.725Z,4.3
2017-03-22T01:44:38.654Z,4.28
2017-03-22T01:45:48.555Z,4.23
2017-03-22T01:46:58.453Z,4.19
2017-03-22T01:48:08.434Z,4.19
2017-03-22T01:49:18.613Z,4.28
2017-03-22T01:50:28.586Z,4.11
2017-03-22T01:51:38.633Z,4.15
2017-03-22T01:52:48.612Z,4.23
2017-03-22T01:53:58.572Z,4.12
2017-03-22T01:55:08.515Z,4.23
2017-03-22T01:56:18.523Z,4.19
2017-03-22T01:57:28.135Z,4.11
2017-03-22T01:58:38.060Z,4.16
2017-03-22T01:59:47.984Z,4.04
2017-03-22T02:00:57.579Z,4
2017-03-22T02:02:07.289Z,4.11
2017-03-22T02:03:16.884Z,4.04
2017-03-22T02:04:26.961Z,4.05
2017-03-22T02:05:36.537Z,4
2017-03-22T02:06:46.506Z,3.98
2017-03-22T02:07:56.124Z,3.98
2017-03-22T02:09:06.073Z,3.95
2017-03-22T02:10:15.990Z,4.05
2017-03-22T02:11:25.665Z,4.01
2017-03-22T02:12:35.563Z,3.95
2017-03-22T02:13:45.477Z,3.98
2017-03-22T02:14:55.155Z,3.9
2017-03-22T02:16:05.114Z,3.91
2017-03-22T02:17:15.036Z,3.95
2017-03-22T02:18:24.687Z,3.91
2017-03-22T02:19:34.635Z,3.85
2017-03-22T02:20:44.560Z,3.82
2017-03-22T02:21:54.516Z,3.9
2017-03-22T02:23:04.513Z,3.79
2017-03-22T02:24:14.477Z,3.86
2017-03-22T02:25:24.384Z,3.8
2017-03-22T02:26:34.198Z,3.83
2017-03-22T02:27:43.803Z,3.85
2017-03-22T02:28:53.818Z,3.77
2017-03-22T02:30:03.432Z,3.77
2017-03-22T02:31:13.431Z,3.77
2017-03-22T02:32:23.379Z,3.75
2017-03-22T02:33:33.286Z,3.76
2017-03-22T02:34:42.886Z,3.69
2017-03-22T02:35:52.842Z,3.69
2017-03-22T02:37:02.779Z,3.79
2017-03-22T02:38:12.705Z,3.75
2017-03-22T02:39:22.609Z,3.64
2017-03-22T02:54:16.830Z,3.61
2017-03-22T02:55:26.907Z,3.62
2017-03-22T02:56:36.485Z,3.55
2017-03-22T02:57:46.484Z,3.61
2017-03-22T02:58:56.384Z,3.54
2017-03-22T03:00:06.280Z,3.58
2017-03-22T03:01:16.239Z,3.54
2017-03-22T03:02:25.888Z,3.62
2017-03-22T03:03:35.799Z,3.62
2017-03-22T03:04:45.723Z,3.57
2017-03-22T03:05:55.910Z,3.55
2017-03-22T03:07:05.837Z,3.57
2017-03-22T03:08:15.419Z,3.58
2017-03-22T03:09:25.452Z,3.57
2017-03-22T03:10:35.496Z,3.58
2017-03-22T03:11:45.704Z,3.54
2017-03-22T03:12:55.625Z,3.54
2017-03-22T03:14:05.276Z,3.47
2017-03-22T03:15:15.207Z,3.5
2017-03-22T03:16:25.126Z,3.44
2017-03-22T03:17:34.960Z,3.5
2017-03-22T03:18:45.061Z,3.54
2017-03-22T03:19:55.056Z,3.52
2017-03-22T03:21:04.678Z,3.57
2017-03-22T03:22:14.274Z,3.57
2017-03-22T03:23:24.494Z,3.61
2017-03-22T03:24:34.515Z,3.69
2017-03-22T03:25:44.427Z,3.61
2017-03-22T03:26:54.385Z,3.68
2017-03-22T03:28:04.059Z,3.72
2017-03-22T03:29:14.271Z,3.69
2017-03-22T03:30:24.210Z,3.72
2017-03-22T03:31:34.157Z,3.67
2017-03-22T03:32:44.071Z,3.75
2017-03-22T03:33:54.004Z,3.77
2017-03-22T03:35:03.859Z,3.79
2017-03-22T03:36:13.768Z,3.73
2017-03-22T03:37:23.669Z,3.58
2017-03-22T03:38:33.589Z,3.67
2017-03-22T03:39:43.233Z,3.69
2017-03-22T03:40:53.392Z,3.68
2017-03-22T03:42:03.362Z,3.73
2017-03-22T03:43:12.947Z,3.69
2017-03-22T03:44:22.621Z,3.65
2017-03-22T03:45:32.199Z,3.59
2017-03-22T03:46:42.381Z,3.73
2017-03-22T03:47:51.797Z,3.69
2017-03-22T03:49:01.765Z,3.64
2017-03-22T03:50:11.677Z,3.64
2017-03-22T03:51:21.277Z,3.61
2017-03-22T03:52:31.121Z,3.65
2017-03-22T03:53:40.699Z,3.76
2017-03-22T03:54:50.018Z,3.64
2017-03-22T03:55:59.919Z,3.69
2017-03-22T03:57:09.861Z,3.54
2017-03-22T03:58:20.034Z,3.54
2017-03-22T03:59:29.814Z,3.54
2017-03-22T04:00:39.455Z,3.57
2017-03-22T04:01:49.364Z,3.5
2017-03-22T04:02:59.304Z,3.47
2017-03-22T04:04:09.854Z,3.54
2017-03-22T04:05:19.918Z,3.46
2017-03-22T04:06:29.841Z,3.42
2017-03-22T04:07:39.767Z,3.4
2017-03-22T04:08:49.360Z,3.37
2017-03-22T04:09:59.648Z,3.36
2017-03-22T04:11:09.245Z,3.42
2017-03-22T04:12:19.274Z,3.32
2017-03-22T04:13:28.913Z,3.32
2017-03-22T04:14:38.929Z,3.25
2017-03-22T04:15:49.111Z,3.31
2017-03-22T04:16:59.009Z,3.32
2017-03-22T04:18:08.913Z,3.36
2017-03-22T04:19:18.511Z,3.39
2017-03-22T04:20:28.108Z,3.26
2017-03-22T04:21:37.941Z,3.36
2017-03-22T04:22:47.931Z,3.24
2017-03-22T04:23:57.867Z,3.28
2017-03-22T04:25:07.766Z,3.18
2017-03-22T04:26:17.788Z,3.18
2017-03-22T04:27:27.940Z,3.18
2017-03-22T04:28:37.517Z,3.21
2017-03-22T04:29:47.437Z,3.13
2017-03-22T04:30:57.344Z,3.18
2017-03-22T04:32:07.239Z,3.24
2017-03-22T04:33:17.138Z,3.19
2017-03-22T04:34:27.038Z,3.1
2017-03-22T04:35:36.990Z,3.07
2017-03-22T04:36:47.106Z,3.07
2017-03-22T04:37:57.009Z,3
2017-03-22T04:39:07.272Z,2.94
2017-03-22T04:40:17.341Z,3
2017-03-22T04:41:26.936Z,2.92
2017-03-22T04:42:37.046Z,2.94
2017-03-22T04:43:47.090Z,2.87
2017-03-22T04:44:57.346Z,2.88
2017-03-22T04:46:07.311Z,2.82
2017-03-22T04:47:16.920Z,2.87
2017-03-22T04:48:26.829Z,2.84
2017-03-22T04:49:36.434Z,2.87
2017-03-22T04:50:46.391Z,2.82
2017-03-22T04:51:56.335Z,2.87
2017-03-22T04:53:06.325Z,2.82
2017-03-22T04:54:16.417Z,2.89
2017-03-22T04:55:26.351Z,2.88
2017-03-22T04:56:35.920Z,2.91
2017-03-22T04:57:45.827Z,2.84
2017-03-22T04:58:55.735Z,2.92
2017-03-22T05:00:05.782Z,2.88
2017-03-22T05:01:15.746Z,2.92
2017-03-22T05:02:25.940Z,2.99
2017-03-22T05:03:35.895Z,2.91
2017-03-22T05:04:45.490Z,2.97
2017-03-22T05:05:55.149Z,3.08
2017-03-22T05:07:04.745Z,2.97
2017-03-22T05:08:14.595Z,3.06
2017-03-22T05:09:24.504Z,2.96
2017-03-22T05:10:34.104Z,2.96
2017-03-22T05:11:44.016Z,2.92
2017-03-22T05:12:53.927Z,2.85
2017-03-22T05:14:03.491Z,2.96
2017-03-22T05:15:13.406Z,2.96
2017-03-22T05:16:23.311Z,2.96
2017-03-22T05:17:32.945Z,2.96
2017-03-22T05:18:42.450Z,2.94
2017-03-22T05:19:52.607Z,2.92
2017-03-22T05:21:02.195Z,2.96
2017-03-22T05:22:12.116Z,2.97
2017-03-22T05:23:22.040Z,2.96
2017-03-22T05:24:32.129Z,3.08
2017-03-22T05:25:42.460Z,3.04
2017-03-22T05:26:52.423Z,3.04
2017-03-22T05:28:02.008Z,3.02
2017-03-22T05:29:11.590Z,3.04
2017-03-22T05:30:21.223Z,2.94
2017-03-22T05:31:31.437Z,3
2017-03-22T05:32:41.339Z,3.07
2017-03-22T05:33:51.347Z,3.07
2017-03-22T05:35:00.985Z,3.19
2017-03-22T05:36:11.004Z,3.26
2017-03-22T05:37:53.038Z,3.26
2017-03-22T05:39:03.223Z,3.32
2017-03-22T05:40:12.862Z,3.37
2017-03-22T05:41:22.772Z,3.32
2017-03-22T05:42:32.475Z,3.26
2017-03-22T05:43:42.648Z,3.29
2017-03-22T05:44:52.619Z,3.24
2017-03-22T05:46:02.533Z,3.26
2017-03-22T05:47:12.467Z,3.26
2017-03-22T05:48:22.388Z,3.29
2017-03-22T05:49:32.546Z,3.28
2017-03-22T05:50:42.155Z,3.32
2017-03-22T05:51:52.107Z,3.29
2017-03-22T05:53:02.021Z,3.34
2017-03-22T05:54:11.944Z,3.36
2017-03-22T05:55:22.106Z,3.43
2017-03-22T05:56:32.020Z,3.4
2017-03-22T05:57:41.688Z,3.43
2017-03-22T05:58:51.312Z,3.54
2017-03-22T06:00:00.901Z,3.55
2017-03-22T06:01:11.084Z,3.57
2017-03-22T06:02:21.028Z,3.58
2017-03-22T06:03:31.114Z,3.62
2017-03-22T06:04:40.751Z,3.54
2017-03-22T06:05:50.699Z,3.58
2017-03-22T06:07:00.918Z,3.54
2017-03-22T06:08:10.827Z,3.54
2017-03-22T06:09:20.828Z,3.58
2017-03-22T06:10:30.779Z,3.61
2017-03-22T06:11:40.459Z,3.65
2017-03-22T06:12:50.344Z,3.59
2017-03-22T06:13:59.653Z,3.5
2017-03-22T06:15:09.716Z,3.54
2017-03-22T06:16:19.639Z,3.55
2017-03-22T06:17:29.560Z,3.59
2017-03-22T06:18:39.745Z,3.5
2017-03-22T06:19:49.676Z,3.52
2017-03-22T06:20:59.306Z,3.57
2017-03-22T06:22:08.885Z,3.68
2017-03-22T06:23:18.795Z,3.62
2017-03-22T06:24:29.055Z,3.68
2017-03-22T06:25:38.689Z,3.73
2017-03-22T06:26:48.639Z,3.76
2017-03-22T06:27:58.574Z,3.61
2017-03-22T06:29:08.272Z,3.69
2017-03-22T06:30:18.431Z,3.76
2017-03-22T06:31:28.371Z,3.8
2017-03-22T06:32:38.400Z,3.86
2017-03-22T06:33:48.319Z,3.93
2017-03-22T06:34:57.971Z,3.95
2017-03-22T06:36:08.221Z,3.97
2017-03-22T06:37:18.205Z,4.08
2017-03-22T06:38:27.853Z,4.01
2017-03-22T06:39:37.864Z,4.12
2017-03-22T06:40:47.903Z,4.16
2017-03-22T06:41:58.138Z,4.12
2017-03-22T06:43:08.042Z,4.22
2017-03-22T06:44:17.976Z,4.3
2017-03-22T06:45:27.257Z,4.38
2017-03-22T06:46:36.564Z,4.37
2017-03-22T06:47:47.000Z,4.4
2017-03-22T06:48:57.005Z,4.5
2017-03-22T06:50:06.981Z,4.5
2017-03-22T06:51:16.564Z,4.62
2017-03-22T06:52:26.484Z,4.67
2017-03-22T06:53:36.838Z,4.74
2017-03-22T06:54:46.836Z,4.62
2017-03-22T06:55:56.440Z,4.68
2017-03-22T06:57:06.104Z,4.7
2017-03-22T06:58:16.073Z,4.8
2017-03-22T06:59:25.915Z,4.74
2017-03-22T07:00:35.506Z,4.85
2017-03-22T07:01:45.453Z,4.89
2017-03-22T07:02:55.073Z,4.95
2017-03-22T07:04:05.132Z,5.04
2017-03-22T07:05:15.345Z,5.08
2017-03-22T07:06:25.270Z,5.24
2017-03-22T07:07:35.250Z,5.17
2017-03-22T07:08:44.907Z,5.16
2017-03-22T07:09:54.897Z,5.18
2017-03-22T07:11:05.114Z,5.31
2017-03-22T07:12:15.068Z,5.31
2017-03-22T07:13:24.713Z,5.41
2017-03-22T07:14:34.640Z,5.5
2017-03-22T07:15:44.551Z,5.56
2017-03-22T07:16:54.730Z,5.61
2017-03-22T07:18:04.665Z,5.74
2017-03-22T07:19:14.298Z,5.68
2017-03-22T07:20:23.942Z,5.93
2017-03-22T07:21:33.547Z,5.9
2017-03-22T07:22:42.435Z,6.03
2017-03-22T07:23:52.347Z,5.98
2017-03-22T07:25:01.995Z,6.01
2017-03-22T07:26:11.946Z,6.02
2017-03-22T07:27:21.922Z,6.05
2017-03-22T07:28:32.147Z,6.05
2017-03-22T07:29:42.089Z,6.12
2017-03-22T07:30:52.049Z,6.16
2017-03-22T07:32:01.991Z,6.16
2017-03-22T07:33:11.955Z,6.24
2017-03-22T07:34:22.118Z,6.28
2017-03-22T07:35:32.055Z,6.28
2017-03-22T07:36:41.959Z,6.3
2017-03-22T07:37:51.946Z,6.35
2017-03-22T07:39:01.681Z,6.46
2017-03-22T07:40:11.527Z,6.54
2017-03-22T07:41:21.481Z,6.57
2017-03-22T07:42:31.429Z,6.74
2017-03-22T07:43:41.350Z,6.85
2017-03-22T07:44:50.984Z,6.95
2017-03-22T07:46:00.895Z,7
2017-03-22T07:47:10.914Z,6.97
2017-03-22T07:48:20.502Z,7.11
2017-03-22T07:49:30.442Z,7.17
2017-03-22T07:50:40.076Z,7.31
2017-03-22T07:51:49.920Z,7.39
2017-03-22T07:52:59.843Z,7.44
2017-03-22T07:54:09.852Z,7.52
2017-03-22T07:55:19.760Z,7.56
2017-03-22T07:56:29.771Z,7.73
2017-03-22T07:57:39.617Z,7.69
2017-03-22T07:58:49.593Z,7.72
2017-03-22T07:59:59.573Z,7.77
2017-03-22T08:01:09.560Z,7.9
2017-03-22T08:02:19.464Z,8.02
2017-03-22T08:03:29.668Z,8.02
2017-03-22T08:04:39.632Z,8.23
2017-03-22T08:05:49.559Z,8.32
2017-03-22T08:06:59.175Z,8.32
2017-03-22T08:08:09.195Z,8.37
2017-03-22T08:09:19.429Z,8.57
2017-03-22T08:10:29.937Z,8.82
2017-03-22T08:11:40.447Z,9.27
2017-03-22T08:12:50.982Z,9.92
2017-03-22T08:14:01.710Z,10.42
2017-03-22T08:15:12.467Z,11.1
2017-03-22T08:16:23.114Z,11.89
2017-03-22T08:17:33.366Z,12.34
2017-03-22T08:18:44.850Z,13.01
2017-03-22T08:19:55.372Z,13.56
2017-03-22T08:21:06.131Z,14.18
2017-03-22T08:22:16.699Z,14.52
2017-03-22T08:23:26.883Z,15.02
2017-03-22T08:24:37.425Z,15.43
2017-03-22T08:25:48.963Z,15.95
2017-03-22T08:26:59.854Z,16.2
2017-03-22T08:28:10.404Z,16.44
2017-03-22T08:29:21.004Z,16.38
2017-03-22T08:30:32.531Z,16.91
2017-03-22T08:31:42.770Z,17.17
2017-03-22T08:32:54.259Z,17.62
2017-03-22T08:34:04.897Z,18.05
2017-03-22T08:35:15.419Z,18.49
2017-03-22T08:36:25.942Z,18.79
2017-03-22T08:37:36.482Z,19.12
2017-03-22T08:38:46.997Z,18.9
2017-03-22T08:39:57.520Z,18.44
2017-03-22T08:41:07.071Z,18.28
2017-03-22T08:42:17.308Z,18.32
2017-03-22T08:43:27.889Z,18
2017-03-22T08:44:38.318Z,17.98
2017-03-22T08:45:48.899Z,18.16
2017-03-22T08:46:59.439Z,18.35
2017-03-22T08:48:10.947Z,18.6
2017-03-22T08:49:21.082Z,18.73
2017-03-22T08:50:32.004Z,18.94
2017-03-22T08:51:42.597Z,19.3
2017-03-22T08:52:53.128Z,19.3
2017-03-22T08:54:03.682Z,19.35
2017-03-22T08:55:13.874Z,19.78
2017-03-22T08:56:24.716Z,19.73
2017-03-22T08:57:35.390Z,19.71
2017-03-22T08:58:46.956Z,19.73
2017-03-22T08:59:57.749Z,19.95
2017-03-22T09:01:08.542Z,20.21
2017-03-22T09:02:19.319Z,20.07
2017-03-22T09:03:29.834Z,19.53
2017-03-22T09:04:40.392Z,19.16
2017-03-22T09:05:50.581Z,18.86
2017-03-22T09:07:01.129Z,18.78
2017-03-22T09:08:11.579Z,19
2017-03-22T09:09:22.273Z,19.15
2017-03-22T09:10:32.854Z,19.65
2017-03-22T09:11:43.380Z,19.97
2017-03-22T09:12:53.981Z,20.2
2017-03-22T09:14:04.739Z,20.24
2017-03-22T09:15:14.958Z,19.95
2017-03-22T09:16:25.626Z,19.9
2017-03-22T09:17:35.841Z,19.97
2017-03-22T09:18:46.068Z,20.2
2017-03-22T09:19:56.617Z,20.28
2017-03-22T09:21:06.969Z,20.39
2017-03-22T09:22:17.538Z,20.53
2017-03-22T09:23:28.046Z,20.43
2017-03-22T09:24:37.953Z,20.35
2017-03-22T09:25:48.810Z,20.49
2017-03-22T09:26:59.005Z,20.81
2017-03-22T09:28:09.016Z,21.08
2017-03-22T09:29:19.628Z,21.22
2017-03-22T09:30:30.319Z,21.28
2017-03-22T09:31:40.792Z,21.69
2017-03-22T09:32:51.015Z,22.05
2017-03-22T09:34:01.272Z,22.34
2017-03-22T09:35:11.782Z,22.6
2017-03-22T09:36:22.315Z,22.65
2017-03-22T09:37:33.104Z,22.52
2017-03-22T09:38:43.627Z,22.52
2017-03-22T09:39:54.164Z,22.64
2017-03-22T09:41:04.816Z,23.01
2017-03-22T09:42:15.390Z,23.17
2017-03-22T09:43:26.171Z,23.33
2017-03-22T09:44:36.429Z,23.54
2017-03-22T09:45:46.758Z,23.77
2017-03-22T09:46:57.278Z,23.98
2017-03-22T09:48:07.841Z,24.24
2017-03-22T09:49:18.693Z,24.31
2017-03-22T09:50:29.243Z,24.66
2017-03-22T09:51:39.799Z,24.75
2017-03-22T09:52:50.580Z,24.7
2017-03-22T09:54:00.797Z,24.6
2017-03-22T09:55:11.895Z,24.6
2017-03-22T09:56:22.552Z,24.67
2017-03-22T09:57:32.810Z,24.7
2017-03-22T09:58:44.385Z,24.63
2017-03-22T09:59:54.900Z,24.15
2017-03-22T10:01:05.687Z,23.98
2017-03-22T10:02:15.878Z,23.88
2017-03-22T10:03:26.463Z,23.76
2017-03-22T10:04:37.027Z,23.68
2017-03-22T10:05:47.867Z,23.5
2017-03-22T10:06:58.065Z,23.39
2017-03-22T10:08:08.668Z,23.36
2017-03-22T10:09:19.004Z,23.14
2017-03-22T10:10:29.827Z,22.99
2017-03-22T10:11:41.016Z,22.87
2017-03-22T10:12:51.544Z,22.7
2017-03-22T10:14:02.103Z,22.8
2017-03-22T10:15:13.316Z,22.87
2017-03-22T10:16:23.878Z,22.86
2017-03-22T10:17:34.454Z,22.67
2017-03-22T10:18:45.271Z,22.31
2017-03-22T10:19:55.915Z,22.2
2017-03-22T10:21:06.481Z,21.93
2017-03-22T10:22:17.318Z,21.9
2017-03-22T10:23:27.647Z,21.9
2017-03-22T10:24:38.442Z,21.86
2017-03-22T10:25:48.658Z,21.9
2017-03-22T10:26:58.894Z,21.84
2017-03-22T10:28:09.536Z,21.53
2017-03-22T10:29:20.085Z,21.4
2017-03-22T10:30:30.496Z,20.97
2017-03-22T10:31:40.730Z,20.81
2017-03-22T10:32:51.339Z,20.54
2017-03-22T10:34:02.021Z,20.53
2017-03-22T10:35:12.657Z,20.49
2017-03-22T10:36:23.465Z,20.53
2017-03-22T10:37:33.722Z,20.81
2017-03-22T10:38:44.245Z,20.83
2017-03-22T10:39:54.763Z,20.93
2017-03-22T10:41:05.017Z,21.04
2017-03-22T10:42:15.827Z,21.23
2017-03-22T10:43:26.227Z,21.31
2017-03-22T10:44:35.813Z,21.4
2017-03-22T10:45:46.391Z,21.37
2017-03-22T10:46:57.872Z,21.34
2017-03-22T10:48:08.462Z,21.12
2017-03-22T10:49:19.000Z,21.04
2017-03-22T10:50:29.304Z,21.03
2017-03-22T10:51:39.555Z,21.13
2017-03-22T10:52:50.127Z,21.31
2017-03-22T10:54:00.927Z,21.33
2017-03-22T10:55:11.491Z,21.4
2017-03-22T10:56:21.765Z,21.45
2017-03-22T10:57:32.293Z,21.2
2017-03-22T10:58:42.878Z,21.09
2017-03-22T10:59:53.657Z,20.96
2017-03-22T11:01:04.176Z,20.71
2017-03-22T11:02:14.970Z,20.42
2017-03-22T11:03:25.557Z,20.3
2017-03-22T11:04:36.174Z,20.23
2017-03-22T11:05:46.650Z,20.24
2017-03-22T11:06:57.004Z,20.08
2017-03-22T11:08:07.510Z,19.89
2017-03-22T11:09:18.081Z,19.7
2017-03-22T11:10:28.605Z,19.39
2017-03-22T11:11:39.164Z,19.28
2017-03-22T11:12:49.730Z,19.19
2017-03-22T11:14:00.292Z,19.1
2017-03-22T11:15:10.526Z,19.35
2017-03-22T11:16:20.748Z,19.37
2017-03-22T11:17:30.933Z,19.3
2017-03-22T11:18:41.471Z,19.37
2017-03-22T11:19:52.110Z,19.3
2017-03-22T11:21:03.657Z,19.27
2017-03-22T11:22:13.892Z,19.39
2017-03-22T11:23:24.712Z,19.63
2017-03-22T11:24:35.512Z,19.79
2017-03-22T11:25:46.037Z,19.74
2017-03-22T11:26:56.601Z,19.65
2017-03-22T11:28:07.144Z,19.61
2017-03-22T11:29:17.999Z,19.71
2017-03-22T11:30:28.552Z,19.7
2017-03-22T11:31:39.111Z,19.78
2017-03-22T11:32:49.709Z,19.74
2017-03-22T11:34:00.229Z,19.85
2017-03-22T11:35:11.054Z,19.8
2017-03-22T11:36:21.260Z,19.82
2017-03-22T11:37:31.847Z,19.7
2017-03-22T11:38:43.425Z,19.83
2017-03-22T11:39:53.693Z,19.56
2017-03-22T11:41:04.526Z,19.63
2017-03-22T11:42:15.322Z,19.48
2017-03-22T11:43:25.869Z,19.34
2017-03-22T11:44:36.451Z,19.09
2017-03-22T11:45:47.109Z,18.78
2017-03-22T11:46:57.930Z,18.6
2017-03-22T11:48:08.592Z,18.6
2017-03-22T11:49:19.212Z,18.34
2017-03-22T11:50:29.745Z,18.31
2017-03-22T11:51:41.155Z,17.98
2017-03-22T11:52:51.696Z,17.86
2017-03-22T11:54:02.268Z,17.65
2017-03-22T11:55:12.861Z,17.42
2017-03-22T11:56:23.465Z,17.4
2017-03-22T11:57:34.220Z,17.49
2017-03-22T11:58:44.683Z,17.65
2017-03-22T11:59:55.320Z,17.94
2017-03-22T12:01:05.823Z,18.1
2017-03-22T12:02:17.342Z,18.32
2017-03-22T12:03:27.946Z,18.25
2017-03-22T12:04:38.916Z,18.3
2017-03-22T12:05:49.800Z,18.4
2017-03-22T12:07:00.351Z,18.38
2017-03-22T12:08:10.575Z,18.32
2017-03-22T12:09:21.219Z,17.98
2017-03-22T12:10:32.275Z,17.73
2017-03-22T12:11:42.798Z,17.45
2017-03-22T12:12:53.116Z,17.3
2017-03-22T12:14:03.751Z,17.24
2017-03-22T12:15:14.114Z,17.17
2017-03-22T12:16:25.037Z,17.31
2017-03-22T12:17:35.591Z,17.43
2017-03-22T12:18:46.196Z,17.31
2017-03-22T12:19:56.794Z,17.38
2017-03-22T12:21:07.443Z,17.45
2017-03-22T12:22:18.330Z,17.54
2017-03-22T12:23:29.540Z,17.61
2017-03-22T12:24:41.112Z,17.5
2017-03-22T12:25:51.702Z,17.38
2017-03-22T12:27:02.287Z,17.39
2017-03-22T12:28:13.187Z,17.46
2017-03-22T12:29:23.940Z,17.65
2017-03-22T12:30:34.197Z,17.82
2017-03-22T12:31:44.773Z,17.95
2017-03-22T12:32:55.415Z,18
2017-03-22T12:34:06.207Z,17.89
2017-03-22T12:35:16.860Z,17.62
2017-03-22T12:36:27.474Z,17.23
2017-03-22T12:37:37.704Z,16.89
2017-03-22T12:38:47.928Z,16.57
2017-03-22T12:39:58.432Z,16.36
2017-03-22T12:41:09.231Z,16.02
2017-03-22T12:42:19.854Z,15.75
2017-03-22T12:43:30.509Z,15.72
2017-03-22T12:44:41.052Z,15.45
2017-03-22T12:45:51.906Z,15.3
2017-03-22T12:47:01.737Z,15.25
2017-03-22T12:48:12.404Z,15.36
2017-03-22T12:49:23.029Z,15.24
2017-03-22T12:50:33.275Z,15.38
2017-03-22T12:51:44.084Z,15.63
2017-03-22T12:52:54.310Z,15.7
2017-03-22T12:54:04.924Z,15.78
2017-03-22T12:55:15.609Z,15.7
2017-03-22T12:56:26.131Z,15.61
2017-03-22T12:57:36.913Z,15.54
2017-03-22T12:58:47.501Z,15.55
2017-03-22T12:59:58.202Z,15.54
2017-03-22T13:01:08.472Z,15.46
2017-03-22T13:02:19.016Z,15.57
2017-03-22T13:03:29.494Z,15.53
2017-03-22T13:04:39.751Z,15.42
2017-03-22T13:05:50.269Z,15.42
2017-03-22T13:07:00.969Z,15.38
2017-03-22T13:08:10.992Z,15.36
2017-03-22T13:09:21.788Z,15.32
2017-03-22T13:10:31.755Z,15.11
2017-03-22T13:11:41.713Z,15.09
2017-03-22T13:12:51.655Z,15.14
2017-03-22T13:14:01.587Z,15.03
2017-03-22T13:15:11.757Z,14.96
2017-03-22T13:16:21.707Z,14.87
2017-03-22T13:17:31.656Z,14.77
2017-03-22T13:18:41.686Z,14.72
2017-03-22T13:19:51.307Z,14.72
2017-03-22T13:21:01.543Z,14.65
2017-03-22T13:22:11.303Z,14.52
2017-03-22T13:23:21.265Z,14.39
2017-03-22T13:24:30.551Z,14.1
2017-03-22T13:25:40.523Z,13.96
2017-03-22T13:26:50.815Z,13.58
2017-03-22T13:28:00.853Z,13.58
2017-03-22T13:29:10.480Z,13.48
2017-03-22T13:30:19.785Z,13.41
2017-03-22T13:31:29.859Z,13.38
2017-03-22T13:32:39.872Z,13.37
2017-03-22T13:33:49.812Z,13.33
2017-03-22T13:34:59.786Z,13.34
2017-03-22T13:36:09.086Z,13.29
2017-03-22T13:37:19.143Z,13.31
2017-03-22T13:38:29.359Z,13.33
2017-03-22T13:39:38.985Z,13.3
2017-03-22T13:40:49.003Z,13.22
2017-03-22T13:41:59.097Z,13.27
2017-03-22T13:43:09.073Z,13.33
2017-03-22T13:44:19.035Z,13.31
2017-03-22T13:45:28.697Z,13.29
2017-03-22T13:46:38.385Z,13.23
2017-03-22T13:47:48.323Z,13.13
2017-03-22T13:48:57.975Z,12.96
2017-03-22T13:50:07.859Z,12.82
2017-03-22T13:51:17.803Z,12.64
2017-03-22T13:52:27.786Z,12.52
2017-03-22T13:53:37.393Z,12.5
2017-03-22T13:54:47.331Z,12.35
2017-03-22T13:55:57.187Z,12.38
2017-03-22T13:57:07.116Z,12.37
2017-03-22T13:58:17.160Z,12.39
2017-03-22T13:59:27.149Z,12.47
2017-03-22T14:00:37.139Z,12.47
2017-03-22T14:01:47.370Z,12.47
2017-03-22T14:02:56.376Z,12.52
2017-03-22T14:04:06.432Z,12.37
2017-03-22T14:05:15.715Z,12.24
2017-03-22T14:06:25.694Z,12.32
2017-03-22T14:07:35.933Z,12.27
2017-03-22T14:08:45.846Z,12.27
2017-03-22T14:09:55.760Z,12.26
2017-03-22T14:11:05.713Z,12.24
2017-03-22T14:12:15.804Z,12.16
2017-03-22T14:13:26.116Z,12.04
2017-03-22T14:14:36.157Z,12.08
2017-03-22T14:15:45.847Z,11.86
2017-03-22T14:16:55.838Z,11.9
2017-03-22T14:18:05.803Z,11.76
2017-03-22T14:19:15.969Z,11.72
2017-03-22T14:20:25.578Z,11.64
2017-03-22T14:21:35.240Z,11.46
2017-03-22T14:22:45.345Z,11.46
2017-03-22T14:23:54.939Z,11.48
2017-03-22T14:25:04.835Z,11.39
2017-03-22T14:26:14.769Z,11.4
2017-03-22T14:27:24.745Z,11.4
2017-03-22T14:28:34.674Z,11.33
2017-03-22T14:29:44.331Z,11.4
2017-03-22T14:30:54.286Z,11.45
2017-03-22T14:32:03.882Z,11.39
2017-03-22T14:33:14.016Z,11.35
2017-03-22T14:34:24.007Z,11.48
2017-03-22T14:35:34.050Z,11.45
2017-03-22T14:36:44.014Z,11.38
2017-03-22T14:37:53.640Z,11.39
2017-03-22T14:39:03.619Z,11.45
2017-03-22T14:40:13.603Z,11.3
2017-03-22T14:41:23.519Z,11.15
2017-03-22T14:42:33.403Z,11.2
2017-03-22T14:43:43.363Z,11.12
2017-03-22T14:44:53.312Z,10.97
2017-03-22T14:46:03.337Z,11.09
2017-03-22T14:47:13.329Z,11.06
2017-03-22T14:48:23.598Z,10.92
2017-03-22T14:49:33.659Z,10.92
2017-03-22T14:50:43.623Z,10.97
2017-03-22T14:51:53.535Z,10.91
2017-03-22T14:53:03.479Z,10.91
2017-03-22T14:54:13.700Z,10.92
2017-03-22T14:55:23.673Z,10.94
2017-03-22T14:56:33.704Z,11.03
2017-03-22T14:57:43.627Z,10.92
2017-03-22T14:58:53.696Z,10.91
2017-03-22T15:00:03.907Z,10.87
2017-03-22T15:01:13.565Z,10.84
2017-03-22T15:02:22.843Z,10.84
2017-03-22T15:03:32.772Z,10.8
2017-03-22T15:04:42.810Z,10.83
2017-03-22T15:05:52.996Z,10.72
2017-03-22T15:07:02.926Z,10.77
2017-03-22T15:08:12.938Z,10.73
2017-03-22T15:09:22.546Z,10.69
2017-03-22T15:10:32.500Z,10.72
2017-03-22T15:11:42.381Z,10.66
2017-03-22T15:12:52.306Z,10.67
2017-03-22T15:14:02.271Z,10.67
2017-03-22T15:15:12.259Z,10.73
2017-03-22T15:16:22.228Z,10.75
2017-03-22T15:17:32.524Z,10.61
2017-03-22T15:18:42.498Z,10.55
2017-03-22T15:19:52.458Z,10.54
2017-03-22T15:21:02.104Z,10.48
2017-03-22T15:22:12.093Z,10.37
2017-03-22T15:23:22.330Z,10.37
2017-03-22T15:24:32.261Z,10.32
2017-03-22T15:25:42.233Z,10.34
2017-03-22T15:26:52.148Z,10.37
2017-03-22T15:28:02.071Z,10.39
2017-03-22T15:29:12.099Z,10.33
2017-03-22T15:30:22.071Z,10.26
2017-03-22T15:31:31.694Z,10.33
2017-03-22T15:32:41.655Z,10.29
2017-03-22T15:33:51.267Z,10.32
2017-03-22T15:35:01.495Z,10.27
2017-03-22T15:36:11.470Z,10.24
2017-03-22T15:37:21.125Z,10.34